FW0955 Weather Reports


time (UTC)temp
C
wind
direction
speed
KPH
gust
KPH
rain 1hr
cm
rain 24hr
cm
rain mn
cm
humidity
%
barometer
mb
20200229100321 10 315 8.0 9.7 0.00 0.00 0.00 53 1014.2
20200229095321 10 292 4.8 6.4 0.00 0.00 0.00 52 1014.4
20200229094321 10 315 4.8 6.4 0.00 0.00 0.00 50 1014.4
20200229093321 10 315 4.8 6.4 0.00 0.00 0.00 50 1014.5
20200229092321 10 292 6.4 6.4 0.00 0.00 0.00 50 1014.6
20200229091321 10 292 6.4 6.4 0.00 0.00 0.00 51 1014.7
20200229090321 11 270 6.4 6.4 0.00 0.00 0.00 50 1014.9
20200229085321 11 292 4.8 4.8 0.00 0.00 0.00 50 1014.9
20200229084321 11 315 4.8 6.4 0.00 0.00 0.00 49 1015.0
20200229083320 11 337 4.8 4.8 0.00 0.00 0.00 51 1015.3
20200229082321 10 270 1.6 1.6 0.00 0.00 0.00 51 1015.3
20200229081321 9 270 4.8 4.8 0.00 0.00 0.00 52 1015.4
20200229080320 9 270 3.2 4.8 0.00 0.00 0.00 53 1015.3
20200229075320 10 0 3.2 4.8 0.00 0.00 0.00 51 1015.4
20200229074320 10 270 4.8 6.4 0.00 0.00 0.00 50 1015.4
20200229073321 10 270 4.8 6.4 0.00 0.00 0.00 50 1015.5
20200229072321 10 270 1.6 3.2 0.00 0.00 0.00 49 1015.6
20200229071320 10 270 4.8 6.4 0.00 0.00 0.00 48 1015.8
20200229070321 10 270 4.8 4.8 0.00 0.00 0.00 49 1015.8
20200229065323 10 270 4.8 4.8 0.00 0.00 0.00 48 1016.0
20200229064321 12 270 4.8 6.4 0.00 0.00 0.00 45 1016.1
20200229063321 13 270 4.8 4.8 0.00 0.00 0.00 40 1016.1
20200229062321 13 292 4.8 4.8 0.00 0.00 0.00 41 1016.1
20200229061321 13 292 6.4 8.0 0.00 0.00 0.00 41 1016.0
20200229060321 13 292 6.4 8.0 0.00 0.00 0.00 41 1016.1
20200229055322 13 315 6.4 8.0 0.00 0.00 0.00 41 1015.9
20200229054322 13 315 8.0 11.3 0.00 0.00 0.00 42 1015.8
20200229053322 13 315 8.0 8.0 0.00 0.00 0.00 40 1015.8
20200229052322 14 292 4.8 6.4 0.00 0.00 0.00 37 1015.9
20200229051321 15 292 3.2 3.2 0.00 0.00 0.00 34 1015.9
20200229050325 16 292 3.2 4.8 0.00 0.00 0.00 31 1015.9
20200229045321 17 270 6.4 9.7 0.00 0.00 0.00 29 1016.0
20200229044323 17 292 6.4 9.7 0.00 0.00 0.00 29 1015.9
20200229043321 16 67 3.2 4.8 0.00 0.00 0.00 32 1015.9
20200229042322 16 22 6.4 8.0 0.00 0.00 0.00 33 1015.8
20200229041326 16 247 8.0 11.3 0.00 0.00 0.00 32 1015.8
20200229040324 16 247 6.4 8.0 0.00 0.00 0.00 31 1015.6
20200229035324 16 247 6.4 11.3 0.00 0.00 0.00 31 1015.4
20200229034324 17 247 6.4 11.3 0.00 0.00 0.00 30 1015.5
20200229033323 17 247 6.4 8.0 0.00 0.00 0.00 30 1015.4
20200229032325 17 247 8.0 11.3 0.00 0.00 0.00 30 1015.2
20200229031324 17 247 6.4 8.0 0.00 0.00 0.00 30 1015.1
20200229030322 17 247 9.7 11.3 0.00 0.00 0.00 31 1015.1
20200229025328 17 247 6.4 11.3 0.00 0.00 0.00 30 1014.9
20200229024322 18 247 4.8 6.4 0.00 0.00 0.00 30 1014.8
20200229023321 18 270 8.0 11.3 0.00 0.00 0.00 29 1014.8
20200229022344 19 247 6.4 6.4 0.00 0.00 0.00 28 1014.7
20200229021321 20 247 8.0 9.7 0.00 0.00 0.00 27 1014.7
20200229020323 20 247 8.0 11.3 0.00 0.00 0.00 27 1014.5
20200229015321 20 270 6.4 9.7 0.00 0.00 0.00 27 1014.5
20200229014321 20 270 6.4 9.7 0.00 0.00 0.00 28 1014.6
20200229013321 21 247 6.4 8.0 0.00 0.00 0.00 27 1014.6
20200229012321 21 247 4.8 6.4 0.00 0.00 0.00 26 1014.7
20200229011321 22 247 4.8 6.4 0.00 0.00 0.00 25 1014.7
20200229010320 23 247 4.8 4.8 0.00 0.00 0.00 25 1014.8
20200229005322 23 247 4.8 6.4 0.00 0.00 0.00 23 1015.0
20200229005021 24 247 4.8 4.8 0.00 0.00 0.00 22 1015.0
20200229004021 25 225 3.2 4.8 0.00 0.00 0.00 21 1014.9
20200229003021 26 225 3.2 3.2 0.00 0.00 0.00 18 1014.9
20200229002021 26 225 4.8 6.4 0.00 0.00 0.00 17 1015.1
20200229001020 27 225 4.8 6.4 0.00 0.00 0.00 15 1015.0
20200229000020 27 225 8.0 11.3 0.00 0.00 0.00 14 1014.9
20200228235020 27 225 6.4 8.0 0.00 0.00 0.00 15 1014.8
20200228234022 27 247 6.4 8.0 0.00 0.00 0.00 16 1014.8
20200228233020 27 247 4.8 8.0 0.00 0.00 0.00 14 1014.8
20200228232021 27 225 6.4 8.0 0.00 0.00 0.00 13 1014.8
20200228231020 27 202 6.4 9.7 0.00 0.00 0.00 14 1014.8
20200228230021 28 202 6.4 8.0 0.00 0.00 0.00 14 1015.0
20200228225021 28 225 8.0 14.5 0.00 0.00 0.00 14 1015.1
20200228224024 28 112 4.8 4.8 0.00 0.00 0.00 13 1015.1
20200228223020 28 135 1.6 3.2 0.00 0.00 0.00 13 1015.1
20200228222020 28 157 4.8 6.4 0.00 0.00 0.00 13 1015.3
20200228221022 28 202 4.8 6.4 0.00 0.00 0.00 13 1015.3
20200228220021 28 247 3.2 4.8 0.00 0.00 0.00 12 1015.2
20200228215021 28 202 8.0 9.7 0.00 0.00 0.00 13 1015.0
20200228214023 28 247 3.2 4.8 0.00 0.00 0.00 13 1014.9
20200228213022 28 202 3.2 4.8 0.00 0.00 0.00 13 1014.8
20200228212023 28 202 8.0 11.3 0.00 0.00 0.00 13 1014.7
20200228211022 28 180 6.4 8.0 0.00 0.00 0.00 14 1014.8
20200228210022 28 112 3.2 3.2 0.00 0.00 0.00 14 1015.1
20200228205025 28 90 4.8 6.4 0.00 0.00 0.00 14 1015.0
20200228204023 28 135 3.2 6.4 0.00 0.00 0.00 15 1015.1
20200228203023 27 112 1.6 6.4 0.00 0.00 0.00 15 1015.3
20200228202023 27 67 1.6 4.8 0.00 0.00 0.00 16 1015.4
20200228201023 27 45 1.6 1.6 0.00 0.00 0.00 15 1015.6
20200228200022 27 112 3.2 6.4 0.00 0.00 0.00 17 1015.9
20200228195023 26 180 3.2 4.8 0.00 0.00 0.00 17 1016.1
20200228194024 26 157 1.6 3.2 0.00 0.00 0.00 17 1016.4
20200228193022 26 135 3.2 3.2 0.00 0.00 0.00 19 1016.5
20200228192022 26 135 9.7 12.9 0.00 0.00 0.00 18 1016.5
20200228191023 26 157 6.4 9.7 0.00 0.00 0.00 18 1016.7
20200228190022 26 135 4.8 6.4 0.00 0.00 0.00 18 1016.9
20200228185038 26 135 4.8 6.4 0.00 0.00 0.00 18 1016.9
20200228184023 25 112 4.8 6.4 0.00 0.00 0.00 19 1016.8
20200228183022 25 67 3.2 4.8 0.00 0.00 0.00 18 1017.0
20200228182025 25 22 6.4 8.0 0.00 0.00 0.00 19 1017.0
20200228181025 25 90 8.0 12.9 0.00 0.00 0.00 18 1017.2
20200228180024 24 22 4.8 8.0 0.00 0.00 0.00 18 1017.2
20200228175022 23 45 1.6 3.2 0.00 0.00 0.00 19 1017.5
20200228174029 23 337 3.2 6.4 0.00 0.00 0.00 20 1017.6
20200228173022 23 337 3.2 4.8 0.00 0.00 0.00 19 1017.5
20200228172023 23 0 4.8 6.4 0.00 0.00 0.00 19 1017.5
20200228171025 22 22 4.8 6.4 0.00 0.00 0.00 20 1017.5
20200228170022 21 0.0 0.0 0.00 0.00 0.00 22 1017.6
20200228165022 21 0 1.6 3.2 0.00 0.00 0.00 24 1017.5
20200228164023 21 337 4.8 6.4 0.00 0.00 0.00 23 1017.4
20200228163025 21 337 6.4 9.7 0.00 0.00 0.00 22 1017.4
20200228162036 21 0 6.4 9.7 0.00 0.00 0.00 22 1017.5
20200228161025 20 315 6.4 6.4 0.00 0.00 0.00 23 1017.5
20200228160029 20 337 8.0 12.9 0.00 0.00 0.00 24 1017.4
20200228155024 18 315 11.3 12.9 0.00 0.00 0.00 26 1017.3
20200228154025 17 315 8.0 12.9 0.00 0.00 0.00 29 1017.2
20200228153023 16 315 8.0 12.9 0.00 0.00 0.00 30 1016.9
20200228152026 16 315 9.7 12.9 0.00 0.00 0.00 30 1016.8
20200228151022 16 315 8.0 12.9 0.00 0.00 0.00 31 1016.8
20200228150021 15 315 8.0 11.3 0.00 0.00 0.00 33 1016.7
20200228145022 13 315 8.0 14.5 0.00 0.00 0.00 38 1016.6
20200228144021 13 315 6.4 8.0 0.00 0.00 0.00 39 1016.5
20200228143021 12 337 6.4 6.4 0.00 0.00 0.00 39 1016.4
20200228142022 12 315 4.8 6.4 0.00 0.00 0.00 41 1016.3
20200228141022 11 315 4.8 6.4 0.00 0.00 0.00 43 1016.3
20200228140022 11 315 4.8 6.4 0.00 0.00 0.00 43 1016.1
20200228135021 11 315 4.8 6.4 0.00 0.00 0.00 43 1015.9
20200228134022 12 315 4.8 6.4 0.00 0.00 0.00 41 1015.8
20200228133021 12 315 3.2 4.8 0.00 0.00 0.00 38 1015.8
20200228132021 13 315 8.0 12.9 0.00 0.00 0.00 37 1015.8
20200228131021 12 337 8.0 9.7 0.00 0.00 0.00 38 1015.9
20200228130021 12 315 6.4 8.0 0.00 0.00 0.00 39 1015.8
20200228125021 12 337 8.0 12.9 0.00 0.00 0.00 41 1015.7
20200228124021 11 337 4.8 6.4 0.00 0.00 0.00 41 1015.8
20200228123021 11 337 4.8 6.4 0.00 0.00 0.00 41 1015.8
20200228122021 11 315 4.8 6.4 0.00 0.00 0.00 41 1015.8
20200228121021 11 315 3.2 4.8 0.00 0.00 0.00 40 1015.7
20200228120021 12 337 4.8 4.8 0.00 0.00 0.00 38 1015.7
20200228115021 13 315 3.2 4.8 0.00 0.00 0.00 34 1015.6
20200228114021 13 315 4.8 4.8 0.00 0.00 0.00 31 1015.5
20200228113021 13 292 4.8 6.4 0.00 0.00 0.00 31 1015.4
20200228112021 13 270 6.4 9.7 0.00 0.00 0.00 32 1015.5
20200228111021 12 292 4.8 6.4 0.00 0.00 0.00 36 1015.1
20200228110021 11 315 4.8 4.8 0.00 0.00 0.00 39 1015.1
20200228105021 11 315 4.8 4.8 0.00 0.00 0.00 41 1015.0
20200228104021 12 315 3.2 4.8 0.00 0.00 0.00 39 1014.8
20200228103021 12 315 4.8 6.4 0.00 0.00 0.00 39 1015.0
20200228102021 12 315 4.8 4.8 0.00 0.00 0.00 38 1014.9